Latest Coastal Weather Observations for Townsville

IDQ60701

Issued at 2:22 am EST Friday 5 March 2021 (issued every 10 minutes, with the page automatically refreshed every 10 minutes)

About coastal observations | Map of coastal stations | Coastal observations for QLD | Marine services | Other Formats
Station Details ID: 032040 Name: TOWNSVILLE AERO Lat: -19.25 Lon: 146.77 Height: 4.34 m
Data from the previous 72 hours. | See also: Recent months at Townsville
Date/Time
EST
Wind Sea
Height
m
Swell Vis
km
Cloud Weather Temp
°C
Press
MSL
hPa
Rain since
9am
mm
Dir  Spd
kts
Gust
kts
Height
m
Period
s
Dir
05/02:00am CALM 0 0 - - - - 10 Partly cloudy - 24.4 1004.6 0.0
05/01:30am W 4 5 - - - - 10 Partly cloudy - 25.0 1004.6 0.0
05/01:00am CALM 0 4 - - - - 10 Partly cloudy - 25.2 1004.8 0.0
05/12:30am SSE 5 6 - - - - 10 - - 25.8 1005.1 0.0
05/12:00am ESE 4 5 - - - - 10 - - 25.7 1005.2 0.0
 
Date/Time
EST
Wind Sea
Height
m
Swell Vis
km
Cloud Weather Temp
°C
Press
MSL
hPa
Rain since
9am
mm
Dir  Spd
kts
Gust
kts
Height
m
Period
s
Dir
04/11:30pm SE 10 15 - - - - 10 Partly cloudy - 26.4 1005.4 0.0
04/11:00pm SE 8 10 - - - - 10 Partly cloudy - 26.0 1005.6 0.0
04/10:30pm SE 13 19 - - - - 10 Partly cloudy - 26.9 1005.6 0.0
04/10:00pm SE 8 15 - - - - 10 Mostly clear - 26.7 1005.2 0.0
04/09:30pm ESE 10 13 - - - - 10 Mostly clear - 26.8 1004.8 0.0
04/09:00pm ESE 15 20 - - - - 10 Mostly clear - 27.0 1004.3 0.0
04/08:30pm ESE 14 19 - - - - 10 Mostly clear - 27.3 1004.0 0.0
04/08:00pm E 11 16 - - - - 10 Mostly clear - 27.3 1003.5 0.0
04/07:30pm ESE 11 16 - - - - 10 Mostly clear - 28.0 1003.2 0.0
04/07:00pm ESE 7 10 - - - - 10 Mostly clear - 28.4 1003.0 0.0
04/06:30pm SE 7 9 - - - - 10 Mostly clear - 28.1 1002.8 0.0
04/06:00pm ESE 7 9 - - - - 10 Cloudy - 28.3 1002.4 0.0
04/05:30pm ENE 9 12 - - - - 10 Mostly clear - 27.6 1002.3 0.0
04/05:00pm ESE 12 16 - - - - 10 Mostly clear - 28.7 1001.9 0.0
04/04:30pm SSE 10 14 - - - - 10 Mostly clear - 30.9 1001.5 0.0
04/04:00pm S 10 15 - - - - 10 Mostly clear - 31.0 1001.2 0.0
04/03:30pm S 12 16 - - - - 10 Mostly clear - 31.1 1001.3 0.0
04/03:00pm S 9 14 - - - - 10 Mostly clear - 31.4 1001.4 0.0
04/02:30pm S 11 18 - - - - 10 Mostly clear - 31.6 1001.5 0.0
04/02:00pm S 8 14 - - - - 10 Partly cloudy - 31.4 1001.8 0.0
04/01:30pm SSE 8 14 - - - - 10 Mostly clear - 31.6 1002.1 0.0
04/01:00pm S 8 12 - - - - 10 Mostly clear - 31.5 1002.6 0.0
04/12:30pm SSW 10 15 - - - - 10 Mostly clear - 30.9 1002.8 0.0
04/12:00pm S 9 13 - - - - 10 Mostly clear - 30.8 1003.1 0.0
04/11:30am S 11 16 - - - - 10 Mostly clear - 31.2 1003.4 0.0
04/11:00am SSE 10 17 - - - - 10 Mostly clear - 30.7 1003.8 0.0
04/10:30am SSE 12 16 - - - - 10 Mostly clear - 30.5 1004.3 0.0
04/10:00am SSE 10 17 - - - - 10 Mostly clear - 29.7 1004.6 0.0
04/09:30am SSE 12 16 - - - - 10 Mostly clear - 29.6 1004.8 0.0
04/09:00am S 12 16 - - - - 10 Mostly clear - 29.0 1004.6 0.0
04/08:30am S 8 12 - - - - 10 Mostly clear - 28.7 1004.4 0.0
04/08:00am SSW 8 9 - - - - 10 Mostly clear - 27.2 1004.2 0.0
04/07:30am SSW 7 9 - - - - 10 Mostly clear - 26.8 1003.6 0.0
04/07:00am SSW 6 8 - - - - 10 Mostly clear - 25.8 1003.5 0.0
04/06:30am SSW 6 7 - - - - 10 Mostly clear - 25.0 1003.4 0.0
04/06:00am SW 2 4 - - - - 10 Mostly clear - 25.2 1003.3 0.0
04/05:30am SW 5 7 - - - - 10 - - 25.3 1003.2 0.0
04/05:00am SSE 3 4 - - - - 10 - - 25.0 1003.0 0.0
04/04:30am SSE 4 5 - - - - 10 - - 24.8 1002.9 0.0
04/04:00am SE 4 6 - - - - 10 - - 25.2 1002.7 0.0
04/03:30am SSW 5 8 - - - - 10 - - 25.3 1002.4 0.0
04/03:00am SSW 1 5 - - - - 10 - - 24.7 1002.7 0.0
04/02:30am SSW 5 6 - - - - 10 - - 25.6 1002.8 0.0
04/02:00am SE 8 10 - - - - 10 - - 26.6 1002.9 0.0
04/01:30am SSE 5 9 - - - - 10 - - 26.6 1003.1 0.0
04/01:00am SE 11 16 - - - - 10 - - 27.2 1003.5 0.0
04/12:30am SE 8 11 - - - - 10 - - 26.4 1003.7 0.0
04/12:00am SSE 9 11 - - - - 10 - - 27.2 1003.8 0.0
 
Date/Time
EST
Wind Sea
Height
m
Swell Vis
km
Cloud Weather Temp
°C
Press
MSL
hPa
Rain since
9am
mm
Dir  Spd
kts
Gust
kts
Height
m
Period
s
Dir
03/11:30pm SE 9 15 - - - - 10 - - 27.5 1004.0 0.0
03/11:00pm SE 16 22 - - - - 10 - - 28.3 1004.0 0.0
03/10:30pm SE 11 17 - - - - 10 - - 28.0 1004.1 0.0
03/10:00pm SSE 6 10 - - - - 10 Mostly clear - 28.0 1004.1 0.0
03/09:30pm ESE 8 14 - - - - 10 Mostly clear - 28.1 1004.4 0.0
03/09:00pm SE 9 13 - - - - 10 Mostly clear - 28.4 1004.0 0.0
03/08:30pm SE 8 13 - - - - 10 Mostly clear - 28.2 1003.7 0.0
03/08:00pm ESE 10 13 - - - - 10 Mostly clear - 28.0 1003.5 0.0
03/07:30pm ESE 13 18 - - - - 10 Mostly clear - 28.3 1003.3 0.0
03/07:00pm ESE 17 21 - - - - 10 Mostly clear - 28.8 1002.9 0.0
03/06:30pm ESE 16 21 - - - - 10 Mostly clear - 28.7 1002.5 0.0
03/06:00pm E 13 18 - - - - 10 Mostly clear - 29.2 1002.2 0.0
03/05:30pm ESE 13 17 - - - - 10 Mostly clear - 29.8 1002.2 0.0
03/05:00pm ENE 10 13 - - - - 10 Mostly clear - 30.4 1002.2 0.0
03/04:30pm SSE 11 15 - - - - 10 Mostly clear - 32.1 1001.9 0.0
03/04:00pm S 16 19 - - - - 10 Mostly clear - 32.3 1001.7 0.0
03/03:30pm SE 10 16 - - - - 10 Mostly clear - 32.4 1001.8 0.0
03/03:00pm SE 11 17 - - - - 10 Mostly clear - 32.6 1002.0 0.0
03/02:30pm SSE 12 16 - - - - 10 Mostly clear - 32.6 1002.6 0.0
03/02:00pm SSE 13 19 - - - - 10 Mostly clear - 32.5 1003.2 0.0
03/01:30pm SSE 10 15 - - - - 10 Mostly clear - 32.4 1003.8 0.0
03/01:00pm S 14 20 - - - - 10 Mostly clear - 31.8 1004.0 0.0
03/12:30pm SSE 16 21 - - - - 10 Mostly clear - 31.6 1004.5 0.0
03/12:00pm S 15 21 - - - - 10 Mostly clear - 31.2 1004.8 0.0
03/11:30am S 15 20 - - - - 10 Mostly clear - 30.8 1005.2 0.0
03/11:00am S 17 23 - - - - 10 Mostly clear - 30.9 1005.3 0.0
03/10:30am S 17 25 - - - - 10 Mostly clear - 30.2 1005.5 0.0
03/10:00am S 14 19 - - - - 10 Mostly clear - 29.5 1005.8 0.0
03/09:30am S 12 18 - - - - 10 Mostly clear - 28.9 1006.2 0.0
03/09:00am S 11 18 - - - - 10 Mostly clear - 28.0 1006.3 0.0
03/08:30am SSE 12 16 - - - - 10 Mostly clear - 27.6 1006.3 0.0
03/08:00am SSE 11 15 - - - - 10 Mostly clear - 27.2 1006.0 0.0
03/07:30am SSE 7 10 - - - - 10 Mostly clear - 26.6 1005.7 0.0
03/07:00am SSE 6 8 - - - - 10 Cloudy - 25.8 1005.2 0.0
03/06:30am SSE 6 8 - - - - 10 Partly cloudy - 24.9 1004.8 0.0
03/06:00am S 5 7 - - - - 10 Cloudy - 24.6 1004.5 0.0
03/05:30am S 5 6 - - - - 10 - - 24.4 1004.3 0.0
03/05:00am S 5 7 - - - - 10 - - 24.4 1004.1 0.0
03/04:30am S 5 8 - - - - 10 - - 24.6 1003.9 0.0
03/04:00am SE 8 13 - - - - 10 - - 25.9 1003.6 0.0
03/03:30am S 5 7 - - - - 10 - - 25.0 1003.6 0.0
03/03:00am S 6 7 - - - - 10 Cloudy - 25.7 1003.6 0.0
03/02:30am SSE 11 17 - - - - 10 - - 26.2 1003.7 0.0
03/02:00am SSE 9 11 - - - - 10 - - 26.2 1004.1 0.0
03/01:30am SSE 10 12 - - - - 10 - - 26.1 1004.2 0.0
03/01:00am SE 7 10 - - - - 10 - - 26.1 1004.5 0.0
03/12:30am SSE 11 14 - - - - 10 - - 27.2 1004.6 0.0
03/12:00am SSE 10 13 - - - - 10 Mostly cloudy - 27.1 1005.1 0.0
 
Date/Time
EST
Wind Sea
Height
m
Swell Vis
km
Cloud Weather Temp
°C
Press
MSL
hPa
Rain since
9am
mm
Dir  Spd
kts
Gust
kts
Height
m
Period
s
Dir
02/11:30pm SSE 11 15 - - - - 10 - - 27.1 1005.3 0.0
02/11:00pm SE 10 14 - - - - 10 - - 26.9 1005.4 0.0
02/10:30pm ESE 8 14 - - - - 10 - - 26.4 1005.5 0.0
02/10:00pm SE 6 9 - - - - 10 Mostly clear - 26.7 1005.3 0.0
02/09:30pm ESE 4 5 - - - - 10 Mostly clear - 26.2 1005.2 0.0
02/09:00pm SSE 3 5 - - - - 10 Mostly cloudy - 26.5 1004.7 0.0
02/08:30pm SE 4 6 - - - - 10 Mostly clear - 26.5 1004.4 0.0
02/08:00pm SSE 5 8 - - - - 10 Mostly clear - 26.6 1004.0 0.0
02/07:30pm E 7 11 - - - - 10 Mostly clear - 26.6 1003.6 0.0
02/07:00pm ESE 8 11 - - - - 10 Mostly clear - 26.8 1003.8 0.0
02/06:30pm E 10 14 - - - - 10 Mostly clear Rain 26.7 1003.6 0.0
02/06:00pm E 12 17 - - - - 10 Cloudy Showers 26.5 1003.4 0.0
02/05:43pm E 15 19 - - - - 10 Mostly clear Showers 26.6 1003.2 0.0
02/05:30pm E 16 21 - - - - 6 Mostly clear Showers 26.5 1003.0 0.0
02/05:24pm ESE 15 20 - - - - 6 Mostly clear Showers 26.8 1002.8 0.0
02/05:00pm E 13 20 - - - - 10 Mostly clear - 27.5 1002.7 0.0
02/04:30pm E 14 20 - - - - 10 Mostly clear - 27.7 1002.6 0.0
02/04:00pm E 8 10 - - - - 10 Mostly clear - 28.9 1002.6 0.0
02/03:30pm E 12 15 - - - - 10 Mostly clear - 29.0 1002.5 0.0
02/03:00pm SSE 15 19 - - - - 10 Cloudy - 30.1 1002.6 0.0
02/02:30pm SSE 9 14 - - - - 10 Mostly clear - 31.4 1002.5 0.0
02/02:00pm SSE 10 15 - - - - 10 Partly cloudy - 31.6 1002.8 0.0
02/01:30pm SE 10 13 - - - - 10 Partly cloudy - 30.7 1003.0 0.0
02/01:00pm SSE 11 18 - - - - 10 Mostly clear - 30.9 1003.3 0.0
02/12:30pm S 12 18 - - - - 10 Mostly clear - 30.2 1003.8 0.0
02/12:00pm S 15 19 - - - - 10 Mostly cloudy - 29.8 1003.9 0.0
02/11:30am SSE 14 19 - - - - 10 Mostly clear - 29.3 1004.5 0.0
02/11:00am S 16 20 - - - - 10 Mostly clear - 29.8 1004.8 0.0
02/10:30am S 10 15 - - - - 10 Mostly clear - 29.8 1005.0 0.0
02/10:00am S 11 17 - - - - 10 Mostly clear - 28.7 1005.5 0.0
02/09:30am S 12 17 - - - - 10 Partly cloudy - 28.0 1005.4 0.0
02/09:00am S 11 16 - - - - 10 Cloudy - 27.4 1005.3 12.0
02/08:30am S 13 20 - - - - 10 Mostly cloudy - 27.1 1005.2 12.0
02/08:00am S 9 13 - - - - 10 Mostly cloudy - 27.0 1005.0 12.0
02/07:30am S 12 15 - - - - 10 Mostly cloudy - 26.6 1004.7 12.0
02/07:00am SSW 10 14 - - - - 10 Partly cloudy - 26.3 1004.4 12.0
02/06:30am SSW 9 14 - - - - 10 Mostly clear - 25.9 1004.1 12.0
02/06:00am S 7 13 - - - - 10 Cloudy - 26.0 1003.8 12.0
02/05:30am SSW 11 15 - - - - 10 Cloudy - 25.8 1003.5 12.0
02/05:00am SSW 10 13 - - - - 10 Partly cloudy - 25.2 1003.2 12.0
02/04:30am SSW 9 11 - - - - 10 Partly cloudy - 25.1 1003.3 12.0
02/04:00am SSW 8 10 - - - - 10 - - 25.2 1003.4 12.0
02/03:30am SSE 8 9 - - - - 10 - - 25.2 1003.5 12.0
02/03:00am SE 7 9 - - - - 10 Partly cloudy - 25.2 1003.6 12.0
02/02:30am ESE 5 7 - - - - 10 Partly cloudy - 25.2 1003.6 12.0

Other formats

Comma delimited format used in spreadsheet applications
http://www.bom.gov.au/fwo/IDQ60701/IDQ60701.94294.axf

JavaScript Object Notation format (JSON) in row-major order
http://www.bom.gov.au/fwo/IDQ60701/IDQ60701.94294.json

Data quality

Most of these data are generated automatically and are frequently updated. Quality checks on data are not normally performed. It is possible for incorrect values to appear. Refer to information at About Latest Weather Observations and please check the disclaimer before using these data.